createdAt,value
2018-08-20T00:02:27.273Z,4.70
2018-08-20T00:05:03.167Z,4.53
2018-08-20T00:07:39.080Z,5.20
2018-08-20T00:10:14.470Z,5.30
2018-08-20T00:12:49.775Z,4.77
2018-08-20T00:15:25.793Z,4.47
2018-08-20T00:18:01.159Z,4.03
2018-08-20T00:20:38.410Z,5.90
2018-08-20T00:23:13.538Z,4.40
2018-08-20T00:25:49.592Z,4.60
2018-08-20T00:28:26.087Z,6.20
2018-08-20T00:31:02.815Z,4.83
2018-08-20T00:33:38.618Z,6.60
2018-08-20T00:36:15.160Z,6.97
2018-08-20T00:38:51.844Z,6.70
2018-08-20T00:41:28.015Z,7.00
2018-08-20T00:44:03.729Z,6.40
2018-08-20T00:46:40.023Z,6.63
2018-08-20T00:49:16.575Z,5.93
2018-08-20T00:51:53.512Z,5.40
2018-08-20T00:54:29.682Z,5.93
2018-08-20T00:57:06.830Z,7.60
2018-08-20T00:59:42.404Z,6.40
2018-08-20T01:02:22.980Z,5.50
2018-08-20T01:05:00.672Z,6.87
2018-08-20T01:07:38.194Z,6.63
2018-08-20T01:10:15.103Z,6.00
2018-08-20T01:12:51.362Z,5.67
2018-08-20T01:15:26.902Z,6.00
2018-08-20T01:18:03.583Z,5.90
2018-08-20T01:20:39.877Z,5.43
2018-08-20T01:23:15.986Z,6.13
2018-08-20T01:25:52.181Z,5.00
2018-08-20T01:28:28.129Z,5.33
2018-08-20T01:31:03.834Z,5.37
2018-08-20T01:33:39.084Z,5.40
2018-08-20T01:36:15.341Z,5.63
2018-08-20T01:38:50.515Z,5.90
2018-08-20T01:41:26.637Z,6.20
2018-08-20T01:44:02.159Z,7.00
2018-08-20T01:46:37.852Z,6.50
2018-08-20T01:49:13.678Z,7.13
2018-08-20T01:51:50.381Z,7.40
2018-08-20T01:54:27.010Z,6.90
2018-08-20T01:57:02.774Z,5.60
2018-08-20T01:59:39.675Z,6.23
2018-08-20T02:02:16.135Z,5.70
2018-08-20T02:04:51.204Z,6.10
2018-08-20T02:07:27.700Z,5.47
2018-08-20T02:10:04.436Z,6.00
2018-08-20T02:12:42.148Z,5.73
2018-08-20T02:15:18.639Z,5.13
2018-08-20T02:17:54.422Z,5.10
2018-08-20T02:20:30.392Z,5.20
2018-08-20T02:23:05.638Z,5.70
2018-08-20T02:25:41.483Z,5.07
2018-08-20T02:28:16.720Z,5.80
2018-08-20T02:30:53.091Z,5.00
2018-08-20T02:33:28.816Z,5.20
2018-08-20T02:36:04.336Z,5.77
2018-08-20T02:38:40.302Z,5.10
2018-08-20T02:41:15.952Z,5.43
2018-08-20T02:43:52.244Z,5.10
2018-08-20T02:46:32.994Z,5.57
2018-08-20T02:49:08.667Z,4.60
2018-08-20T02:51:44.975Z,5.23
2018-08-20T02:54:20.808Z,6.73
2018-08-20T02:56:56.481Z,5.80
2018-08-20T02:59:32.265Z,5.03
2018-08-20T03:02:07.982Z,5.23
2018-08-20T03:04:43.494Z,4.93
2018-08-20T03:07:18.960Z,5.10
2018-08-20T03:09:55.247Z,5.07
2018-08-20T03:12:31.335Z,5.30
2018-08-20T03:15:07.015Z,5.23
2018-08-20T03:17:43.630Z,5.57
2018-08-20T03:20:19.551Z,5.50
2018-08-20T03:22:55.407Z,5.50
2018-08-20T03:25:30.575Z,5.30
2018-08-20T03:28:06.205Z,4.60
2018-08-20T03:33:39.200Z,5.37
2018-08-20T03:36:15.668Z,5.07
2018-08-20T03:38:51.468Z,5.80
2018-08-20T03:41:27.207Z,5.23
2018-08-20T03:44:02.647Z,4.60
2018-08-20T03:46:38.978Z,5.13
2018-08-20T03:49:15.080Z,5.70
2018-08-20T03:51:51.309Z,6.97
2018-08-20T03:57:08.428Z,5.10
2018-08-20T03:59:44.474Z,5.50
2018-08-20T04:02:20.194Z,5.57
2018-08-20T04:05:04.721Z,5.70
2018-08-20T04:07:40.376Z,5.93
2018-08-20T04:10:16.763Z,5.70
2018-08-20T04:12:52.479Z,5.87
2018-08-20T04:15:28.052Z,5.23
2018-08-20T04:18:04.022Z,5.87
2018-08-20T04:20:39.684Z,5.77
2018-08-20T04:23:15.408Z,5.87
2018-08-20T04:25:51.029Z,5.70
2018-08-20T04:28:26.892Z,5.60
2018-08-20T04:31:01.949Z,5.60
2018-08-20T04:33:37.602Z,6.03
2018-08-20T04:36:13.138Z,5.80
2018-08-20T04:38:48.843Z,5.90
2018-08-20T04:41:25.813Z,5.70
2018-08-20T04:44:01.653Z,5.23
2018-08-20T04:46:37.508Z,6.13
2018-08-20T04:49:12.714Z,5.73
2018-08-20T04:51:48.738Z,5.70
2018-08-20T04:54:25.097Z,6.07
2018-08-20T04:57:00.735Z,5.90
2018-08-20T04:59:36.562Z,6.23
2018-08-20T05:02:12.236Z,6.03
2018-08-20T05:04:47.892Z,6.00
2018-08-20T05:07:23.578Z,5.53
2018-08-20T05:09:59.590Z,5.20
2018-08-20T05:12:36.075Z,5.60
2018-08-20T05:15:11.697Z,6.13
2018-08-20T05:17:47.786Z,5.83
2018-08-20T05:20:22.847Z,5.80
2018-08-20T05:22:59.472Z,6.00
2018-08-20T05:25:35.681Z,6.10
2018-08-20T05:28:12.208Z,5.83
2018-08-20T05:30:48.523Z,5.30
2018-08-20T05:33:25.075Z,6.47
2018-08-20T05:36:00.267Z,5.80
2018-08-20T05:38:36.265Z,6.00
2018-08-20T05:41:11.924Z,5.77
2018-08-20T05:43:47.732Z,5.57
2018-08-20T05:46:23.441Z,5.40
2018-08-20T05:48:59.140Z,5.90
2018-08-20T05:51:34.946Z,5.20
2018-08-20T05:54:11.015Z,5.70
2018-08-20T05:56:47.058Z,6.20
2018-08-20T05:59:23.280Z,5.37
2018-08-20T06:01:59.800Z,6.10
2018-08-20T06:04:36.161Z,5.47
2018-08-20T06:07:12.038Z,5.20
2018-08-20T06:09:48.504Z,4.80
2018-08-20T06:12:24.893Z,5.43
2018-08-20T06:15:00.640Z,6.40
2018-08-20T06:17:37.433Z,6.00
2018-08-20T06:20:15.298Z,6.23
2018-08-20T06:22:51.737Z,5.50
2018-08-20T06:25:27.895Z,5.53
2018-08-20T06:28:03.074Z,10.70
2018-08-20T06:30:38.916Z,6.83
2018-08-20T06:33:15.051Z,5.90
2018-08-20T06:35:51.301Z,6.10
2018-08-20T06:38:26.837Z,5.47
2018-08-20T06:41:02.307Z,5.87
2018-08-20T06:43:38.420Z,5.07
2018-08-20T06:46:14.538Z,5.50
2018-08-20T06:48:50.166Z,6.60
2018-08-20T06:51:25.950Z,5.30
2018-08-20T06:54:02.698Z,5.57
2018-08-20T06:56:38.120Z,5.30
2018-08-20T06:59:13.938Z,5.37
2018-08-20T07:01:54.685Z,6.23
2018-08-20T07:04:29.696Z,6.00
2018-08-20T07:07:05.601Z,6.70
2018-08-20T07:09:41.752Z,5.80
2018-08-20T07:12:17.543Z,5.67
2018-08-20T07:14:52.511Z,5.77
2018-08-20T07:17:28.799Z,7.00
2018-08-20T07:20:04.085Z,6.07
2018-08-20T07:22:39.929Z,6.10
2018-08-20T07:25:15.478Z,6.30
2018-08-20T07:27:51.608Z,6.73
2018-08-20T07:30:28.047Z,6.83
2018-08-20T07:33:03.740Z,6.63
2018-08-20T07:35:38.909Z,6.20
2018-08-20T07:38:14.546Z,6.40
2018-08-20T07:40:51.024Z,6.73
2018-08-20T07:43:26.044Z,5.20
2018-08-20T07:46:01.884Z,5.50
2018-08-20T07:48:37.502Z,5.57
2018-08-20T07:51:13.080Z,5.23
2018-08-20T07:53:49.190Z,5.70
2018-08-20T07:56:25.068Z,5.30
2018-08-20T07:59:00.841Z,5.20
2018-08-20T08:01:36.779Z,5.97
2018-08-20T08:04:12.425Z,4.27
2018-08-20T08:06:47.978Z,4.37
2018-08-20T08:09:23.399Z,5.53
2018-08-20T08:11:59.634Z,5.63
2018-08-20T08:14:36.615Z,10.63
2018-08-20T08:17:12.907Z,6.70
2018-08-20T08:19:49.395Z,4.00
2018-08-20T08:22:24.657Z,5.27
2018-08-20T08:25:00.836Z,4.50
2018-08-20T08:27:36.826Z,4.37
2018-08-20T08:30:16.392Z,4.08
2018-08-20T08:32:52.207Z,3.75
2018-08-20T08:35:27.797Z,4.58
2018-08-20T08:38:03.532Z,4.80
2018-08-20T08:40:39.519Z,4.90
2018-08-20T08:43:14.692Z,4.43
2018-08-20T08:45:50.165Z,5.10
2018-08-20T08:48:25.943Z,4.57
2018-08-20T08:51:01.944Z,4.45
2018-08-20T08:53:37.909Z,4.10
2018-08-20T08:56:12.821Z,5.77
2018-08-20T08:58:48.583Z,4.03
2018-08-20T09:01:25.053Z,3.87
2018-08-20T09:04:00.924Z,3.87
2018-08-20T09:06:36.242Z,5.40
2018-08-20T09:09:11.975Z,4.67
2018-08-20T09:11:47.284Z,4.08
2018-08-20T09:14:23.022Z,4.08
2018-08-20T09:16:59.115Z,3.20
2018-08-20T09:19:34.418Z,4.20
2018-08-20T09:22:10.368Z,3.60
2018-08-20T09:24:46.491Z,3.00
2018-08-20T09:27:22.694Z,3.27
2018-08-20T09:29:57.975Z,3.57
2018-08-20T09:32:33.319Z,2.97
2018-08-20T09:35:09.886Z,3.97
2018-08-20T09:37:45.562Z,3.70
2018-08-20T09:40:21.188Z,3.87
2018-08-20T09:42:57.107Z,3.87
2018-08-20T09:45:32.494Z,4.53
2018-08-20T09:48:08.164Z,3.30
2018-08-20T09:50:44.437Z,4.77
2018-08-20T09:53:19.749Z,7.67
2018-08-20T09:55:55.227Z,3.60
2018-08-20T09:58:30.771Z,3.63
2018-08-20T10:01:06.195Z,3.80
2018-08-20T10:03:45.107Z,3.13
2018-08-20T10:06:20.884Z,4.20
2018-08-20T10:08:56.909Z,4.23
2018-08-20T10:11:31.882Z,3.23
2018-08-20T10:14:07.766Z,4.57
2018-08-20T10:16:43.272Z,5.13
2018-08-20T10:19:19.009Z,4.63
2018-08-20T10:21:54.699Z,3.20
2018-08-20T10:24:30.105Z,3.60
2018-08-20T10:27:05.636Z,4.33
2018-08-20T10:29:41.089Z,3.70
2018-08-20T10:32:17.119Z,3.77
2018-08-20T10:34:52.800Z,3.53
2018-08-20T10:37:28.564Z,3.90
2018-08-20T10:40:04.057Z,3.40
2018-08-20T10:42:39.954Z,6.57
2018-08-20T10:45:17.146Z,6.47
2018-08-20T10:47:52.558Z,6.90
2018-08-20T10:50:27.962Z,6.60
2018-08-20T10:53:04.547Z,5.50
2018-08-20T10:55:40.499Z,5.60
2018-08-20T10:58:16.299Z,4.87
2018-08-20T11:00:51.825Z,5.50
2018-08-20T11:03:27.307Z,4.70
2018-08-20T11:06:02.802Z,4.33
2018-08-20T11:08:38.176Z,4.62
2018-08-20T11:11:13.908Z,4.78
2018-08-20T11:13:49.468Z,5.30
2018-08-20T11:16:24.990Z,4.10
2018-08-20T11:19:00.574Z,5.55
2018-08-20T11:21:36.290Z,5.55
2018-08-20T11:24:11.848Z,4.10
2018-08-20T11:26:48.404Z,4.10
2018-08-20T11:29:23.227Z,3.85
2018-08-20T11:31:58.947Z,4.15
2018-08-20T11:34:34.270Z,5.65
2018-08-20T11:37:10.207Z,5.70
2018-08-20T11:39:45.476Z,3.75
2018-08-20T11:42:21.532Z,4.58
2018-08-20T11:44:56.840Z,4.15
2018-08-20T11:47:32.898Z,3.77
2018-08-20T11:50:08.315Z,3.47
2018-08-20T11:52:44.224Z,3.20
2018-08-20T11:55:19.987Z,2.75
2018-08-20T11:57:55.919Z,2.75
2018-08-20T12:00:31.100Z,3.00
2018-08-20T12:03:07.688Z,2.98
2018-08-20T12:05:42.791Z,3.30
2018-08-20T12:08:18.596Z,3.02
2018-08-20T12:10:54.527Z,3.00
2018-08-20T12:13:29.707Z,3.22
2018-08-20T12:16:06.376Z,3.50
2018-08-20T12:18:42.783Z,3.90
2018-08-20T12:21:17.838Z,3.45
2018-08-20T12:23:53.130Z,2.58
2018-08-20T12:26:29.334Z,3.10
2018-08-20T12:29:04.557Z,3.25
2018-08-20T12:31:40.118Z,3.20
2018-08-20T12:34:16.278Z,3.67
2018-08-20T12:36:51.890Z,3.33
2018-08-20T12:39:27.419Z,2.90
2018-08-20T12:42:03.702Z,3.50
2018-08-20T12:44:39.951Z,3.50
2018-08-20T12:47:15.254Z,2.75
2018-08-20T12:49:50.940Z,3.17
2018-08-20T12:52:27.820Z,3.67
2018-08-20T12:55:03.680Z,4.55
2018-08-20T12:57:40.180Z,3.85
2018-08-20T13:00:15.635Z,2.70
2018-08-20T13:02:51.192Z,3.12
2018-08-20T13:05:26.370Z,3.70
2018-08-20T13:08:02.275Z,4.20
2018-08-20T13:10:38.277Z,3.47
2018-08-20T13:13:13.351Z,4.07
2018-08-20T13:15:48.928Z,3.60
2018-08-20T13:18:24.464Z,4.40
2018-08-20T13:21:00.157Z,4.30
2018-08-20T13:23:35.937Z,3.20
2018-08-20T13:26:12.334Z,4.07
2018-08-20T13:28:48.833Z,4.10
2018-08-20T13:31:25.020Z,3.10
2018-08-20T13:34:01.257Z,3.73
2018-08-20T13:36:37.768Z,3.27
2018-08-20T13:39:14.230Z,3.10
2018-08-20T13:41:51.483Z,3.70
2018-08-20T13:44:27.337Z,3.70
2018-08-20T13:47:04.289Z,3.47
2018-08-20T13:49:40.522Z,3.90
2018-08-20T13:52:16.240Z,4.23
2018-08-20T13:54:52.490Z,3.80
2018-08-20T13:57:32.251Z,4.17
2018-08-20T14:00:08.843Z,3.90
2018-08-20T14:02:45.886Z,4.63
2018-08-20T14:05:21.414Z,4.47
2018-08-20T14:07:57.037Z,3.80
2018-08-20T14:10:32.841Z,3.70
2018-08-20T14:13:09.464Z,3.90
2018-08-20T14:15:45.315Z,3.60
2018-08-20T14:18:21.802Z,4.93
2018-08-20T14:21:05.785Z,3.60
2018-08-20T14:23:43.512Z,4.43
2018-08-20T14:26:19.630Z,3.50
2018-08-20T14:28:56.581Z,3.17
2018-08-20T14:31:32.631Z,3.10
2018-08-20T14:34:09.796Z,3.17
2018-08-20T14:36:45.809Z,3.73
2018-08-20T14:39:21.342Z,3.47
2018-08-20T14:41:57.299Z,3.43
2018-08-20T14:44:33.370Z,3.00
2018-08-20T14:47:09.264Z,3.33
2018-08-20T14:49:45.379Z,4.00
2018-08-20T14:52:21.370Z,4.17
2018-08-20T14:54:58.857Z,4.40
2018-08-20T14:57:35.369Z,4.60
2018-08-20T15:00:13.294Z,4.30
2018-08-20T15:02:49.576Z,4.30
2018-08-20T15:05:25.100Z,5.17
2018-08-20T15:08:00.514Z,5.90
2018-08-20T15:10:36.829Z,5.97
2018-08-20T15:13:13.226Z,4.63
2018-08-20T15:15:50.203Z,5.00
2018-08-20T15:18:27.648Z,4.40
2018-08-20T15:21:04.514Z,5.20
2018-08-20T15:23:40.414Z,5.60
2018-08-20T15:26:17.041Z,6.33
2018-08-20T15:28:53.481Z,6.10
2018-08-20T15:31:29.644Z,5.73
2018-08-20T15:34:05.927Z,5.27
2018-08-20T15:36:43.154Z,4.67
2018-08-20T15:39:19.128Z,5.80
2018-08-20T15:41:55.577Z,5.20
2018-08-20T15:44:30.483Z,5.47
2018-08-20T15:47:06.576Z,5.60
2018-08-20T15:49:42.250Z,4.90
2018-08-20T15:52:17.831Z,5.43
2018-08-20T15:57:44.480Z,4.40
2018-08-20T16:00:20.534Z,5.37
2018-08-20T16:02:56.141Z,5.10
2018-08-20T16:05:31.739Z,4.90
2018-08-20T16:08:06.984Z,4.77
2018-08-20T16:10:42.996Z,4.53
2018-08-20T16:13:18.657Z,5.40
2018-08-20T16:15:53.885Z,5.27
2018-08-20T16:18:29.797Z,5.17
2018-08-20T16:21:05.061Z,4.80
2018-08-20T16:23:41.295Z,5.40
2018-08-20T16:26:17.404Z,5.60
2018-08-20T16:28:52.854Z,5.90
2018-08-20T16:31:28.470Z,5.47
2018-08-20T16:34:04.022Z,5.10
2018-08-20T16:36:39.991Z,4.30
2018-08-20T16:39:15.373Z,4.20
2018-08-20T16:41:51.089Z,4.70
2018-08-20T16:44:26.534Z,4.20
2018-08-20T16:47:02.389Z,4.43
2018-08-20T16:49:38.482Z,5.10
2018-08-20T16:52:14.554Z,4.97
2018-08-20T16:54:50.507Z,4.83
2018-08-20T16:57:26.819Z,4.40
2018-08-20T17:00:02.732Z,4.80
2018-08-20T17:02:39.546Z,4.60
2018-08-20T17:05:15.658Z,5.00
2018-08-20T17:07:52.096Z,4.30
2018-08-20T17:10:27.988Z,3.97
2018-08-20T17:13:03.584Z,3.70
2018-08-20T17:15:39.499Z,4.30
2018-08-20T17:18:15.399Z,3.80
2018-08-20T17:20:51.422Z,5.60
2018-08-20T17:23:27.025Z,5.00
2018-08-20T17:26:02.707Z,4.63
2018-08-20T17:28:37.947Z,4.20
2018-08-20T17:31:14.042Z,4.23
2018-08-20T17:33:49.427Z,4.67
2018-08-20T17:36:24.890Z,4.60
2018-08-20T17:39:01.520Z,5.17
2018-08-20T17:41:37.212Z,3.90
2018-08-20T17:44:13.626Z,4.60
2018-08-20T17:46:49.992Z,4.63
2018-08-20T17:49:31.070Z,3.67
2018-08-20T17:52:06.970Z,4.17
2018-08-20T17:54:42.559Z,4.70
2018-08-20T17:57:18.439Z,4.23
2018-08-20T17:59:54.649Z,4.60
2018-08-20T18:02:31.369Z,4.70
2018-08-20T18:05:06.508Z,3.53
2018-08-20T18:07:42.509Z,4.80
2018-08-20T18:10:17.684Z,5.13
2018-08-20T18:12:53.590Z,4.57
2018-08-20T18:15:29.412Z,5.30
2018-08-20T18:18:05.321Z,4.60
2018-08-20T18:20:46.383Z,4.50
2018-08-20T18:23:22.383Z,4.20
2018-08-20T18:25:58.188Z,4.40
2018-08-20T18:28:40.604Z,4.30
2018-08-20T18:31:19.243Z,7.97
2018-08-20T18:33:54.935Z,6.00
2018-08-20T18:36:30.236Z,5.53
2018-08-20T18:39:08.750Z,5.70
2018-08-20T18:42:17.106Z,7.67
2018-08-20T18:44:52.590Z,6.63
2018-08-20T18:47:27.991Z,6.90
2018-08-20T18:50:03.874Z,7.20
2018-08-20T18:52:39.502Z,7.47
2018-08-20T18:55:15.072Z,7.57
2018-08-20T18:57:50.796Z,7.87
2018-08-20T19:00:26.254Z,8.30
2018-08-20T19:03:04.031Z,8.87
2018-08-20T19:05:44.713Z,9.03
2018-08-20T19:08:25.627Z,8.03
2018-08-20T19:11:01.035Z,7.50
2018-08-20T19:13:36.790Z,7.90
2018-08-20T19:16:21.461Z,7.60
2018-08-20T19:18:56.747Z,6.90
2018-08-20T19:21:32.597Z,8.40
2018-08-20T19:24:08.583Z,8.63
2018-08-20T19:26:44.735Z,8.07
2018-08-20T19:29:24.773Z,8.73
2018-08-20T19:31:59.870Z,7.93
2018-08-20T19:34:35.512Z,8.73
2018-08-20T19:37:12.265Z,8.87
2018-08-20T19:39:48.220Z,8.70
2018-08-20T19:42:28.774Z,9.83
2018-08-20T19:45:05.826Z,8.63
2018-08-20T19:47:41.131Z,7.87
2018-08-20T19:50:17.223Z,8.20
2018-08-20T19:52:52.664Z,8.40
2018-08-20T19:55:28.661Z,9.30
2018-08-20T19:58:04.170Z,7.50
2018-08-20T20:00:40.297Z,7.67
2018-08-20T20:03:16.462Z,8.97
2018-08-20T20:05:52.300Z,8.33
2018-08-20T20:08:28.175Z,8.03
2018-08-20T20:11:04.413Z,14.90
2018-08-20T20:13:39.897Z,7.40
2018-08-20T20:16:15.529Z,7.23
2018-08-20T20:18:51.839Z,8.03
2018-08-20T20:21:27.846Z,7.27
2018-08-20T20:24:03.533Z,7.20
2018-08-20T20:26:39.168Z,7.03
2018-08-20T20:29:14.667Z,6.97
2018-08-20T20:31:51.298Z,6.90
2018-08-20T20:34:26.989Z,8.47
2018-08-20T20:37:02.356Z,7.43
2018-08-20T20:39:40.416Z,10.20
2018-08-20T20:42:15.749Z,8.00
2018-08-20T20:44:51.791Z,8.43
2018-08-20T20:47:27.886Z,6.50
2018-08-20T20:50:03.689Z,5.93
2018-08-20T20:52:39.656Z,5.63
2018-08-20T20:55:15.209Z,6.03
2018-08-20T20:57:54.714Z,6.40
2018-08-20T21:00:30.388Z,6.63
2018-08-20T21:03:11.292Z,5.30
2018-08-20T21:05:46.374Z,6.90
2018-08-20T21:08:22.638Z,7.27
2018-08-20T21:10:58.201Z,6.90
2018-08-20T21:13:33.310Z,5.50
2018-08-20T21:16:10.135Z,6.90
2018-08-20T21:18:51.061Z,5.57
2018-08-20T21:21:26.823Z,6.40
2018-08-20T21:24:06.054Z,8.87
2018-08-20T21:26:42.011Z,5.77
2018-08-20T21:29:17.145Z,6.70
2018-08-20T21:31:53.310Z,6.00
2018-08-20T21:34:32.136Z,6.70
2018-08-20T21:37:08.042Z,5.50
2018-08-20T21:39:43.847Z,6.60
2018-08-20T21:42:23.161Z,4.50
2018-08-20T21:44:59.604Z,10.90
2018-08-20T21:47:35.246Z,8.47
2018-08-20T21:50:10.560Z,6.00
2018-08-20T21:52:47.412Z,7.37
2018-08-20T21:55:22.457Z,5.00
2018-08-20T21:57:58.875Z,5.40
2018-08-20T22:00:34.622Z,5.20
2018-08-20T22:03:11.846Z,5.10
2018-08-20T22:05:47.161Z,5.93
2018-08-20T22:08:23.519Z,6.00
2018-08-20T22:11:00.222Z,5.57
2018-08-20T22:13:42.365Z,6.40
2018-08-20T22:16:23.219Z,6.27
2018-08-20T22:18:59.092Z,10.10
2018-08-20T22:21:35.230Z,6.07
2018-08-20T22:24:11.627Z,5.03
2018-08-20T22:26:56.629Z,6.50
2018-08-20T22:29:38.379Z,5.97
2018-08-20T22:32:16.097Z,5.70
2018-08-20T22:34:51.876Z,5.23
2018-08-20T22:37:27.854Z,5.90
2018-08-20T22:40:06.671Z,5.70
2018-08-20T22:42:49.467Z,4.80
2018-08-20T22:45:25.194Z,5.03
2018-08-20T22:48:01.128Z,5.60
2018-08-20T22:50:37.262Z,6.17
2018-08-20T22:53:13.829Z,9.43
2018-08-20T22:55:58.304Z,6.53
2018-08-20T22:58:33.570Z,8.13
2018-08-20T23:01:09.137Z,8.67
2018-08-20T23:03:46.325Z,9.03
2018-08-20T23:06:22.504Z,7.50
2018-08-20T23:08:58.733Z,9.20
2018-08-20T23:11:42.443Z,8.83
2018-08-20T23:14:18.068Z,7.20
2018-08-20T23:16:56.756Z,8.03
2018-08-20T23:19:32.446Z,8.33
2018-08-20T23:22:07.746Z,8.33
2018-08-20T23:24:47.415Z,8.30
2018-08-20T23:27:27.804Z,8.50
2018-08-20T23:30:03.566Z,7.90
2018-08-20T23:32:38.834Z,8.80
2018-08-20T23:35:14.986Z,7.70
2018-08-20T23:37:51.981Z,7.53
2018-08-20T23:40:28.244Z,9.37
2018-08-20T23:43:03.491Z,12.10
2018-08-20T23:45:39.594Z,7.70
2018-08-20T23:48:15.327Z,10.40
2018-08-20T23:50:57.128Z,6.90
2018-08-20T23:53:33.097Z,9.23
2018-08-20T23:56:08.940Z,9.17
2018-08-20T23:58:44.894Z,7.97
